Time;durP1;ratioP1;P1;durP2;ratioP2;P2;SDS_P1;SDS_P2;PMS_P1;PMS_P2;Temp;Humidity;BMP_temperature;BMP_pressure;BME280_temperature;BME280_humidity;BME280_pressure;Samples;Min_cycle;Max_cycle;Signal;HPM_P1;HPM_P2
2022/12/07 00:00:14;;;;;;;11.02;7.35;;;;;;;5.22;100.00;101748.97;5196482;28;20448;-68
2022/12/07 00:02:45;;;;;;;12.10;7.05;;;;;;;5.11;100.00;101754.69;5196339;28;20027;-68
2022/12/07 00:05:16;;;;;;;10.48;7.50;;;;;;;5.04;100.00;101743.78;5196376;28;20034;-68
2022/12/07 00:07:48;;;;;;;11.38;7.32;;;;;;;5.04;100.00;101741.16;5192726;28;20351;-68
2022/12/07 00:10:20;;;;;;;10.63;7.82;;;;;;;4.98;100.00;101744.03;5191726;28;20439;-68
2022/12/07 00:12:51;;;;;;;9.10;7.13;;;;;;;4.95;100.00;101744.19;5194067;28;20030;-68
2022/12/07 00:15:22;;;;;;;12.95;7.32;;;;;;;4.92;100.00;101746.06;5194264;28;20038;-68
2022/12/07 00:17:54;;;;;;;8.45;6.90;;;;;;;4.88;100.00;101745.38;5195132;28;20084;-68
2022/12/07 00:20:25;;;;;;;11.15;7.03;;;;;;;4.87;100.00;101739.34;5195595;28;20026;-68
2022/12/07 00:22:56;;;;;;;10.27;7.55;;;;;;;4.83;100.00;101737.81;5195302;28;20026;-68
2022/12/07 00:25:27;;;;;;;10.02;6.82;;;;;;;4.81;100.00;101734.47;5192970;28;20041;-68
2022/12/07 00:27:59;;;;;;;9.30;7.20;;;;;;;4.79;100.00;101725.88;5193023;28;20026;-68
2022/12/07 00:30:30;;;;;;;9.18;6.72;;;;;;;4.75;100.00;101724.34;5195445;28;20028;-68
2022/12/07 00:33:01;;;;;;;11.35;6.78;;;;;;;4.77;100.00;101727.72;5195701;28;20022;-68
2022/12/07 00:35:32;;;;;;;8.88;6.90;;;;;;;4.78;100.00;101718.19;5192522;28;20034;-68
2022/12/07 00:38:04;;;;;;;11.35;6.97;;;;;;;4.77;100.00;101725.13;5195562;28;20073;-68
2022/12/07 00:40:35;;;;;;;11.13;6.93;;;;;;;4.73;100.00;101714.94;5195322;28;20076;-68
2022/12/07 00:43:06;;;;;;;8.60;6.93;;;;;;;4.77;100.00;101717.34;5192947;28;20088;-68
2022/12/07 00:45:37;;;;;;;8.73;7.20;;;;;;;4.73;100.00;101720.13;5195314;28;20384;-68
2022/12/07 00:48:09;;;;;;;9.13;7.13;;;;;;;4.72;100.00;101723.66;5195403;28;20018;-68
2022/12/07 00:50:40;;;;;;;9.13;6.95;;;;;;;4.68;100.00;101725.53;5194445;28;20054;-68
2022/12/07 00:53:12;;;;;;;9.60;7.10;;;;;;;4.72;100.00;101726.25;5193990;28;20029;-68
2022/12/07 00:55:44;;;;;;;10.18;7.35;;;;;;;4.66;100.00;101721.31;5194922;28;20787;-68
2022/12/07 00:58:15;;;;;;;8.68;6.50;;;;;;;4.56;100.00;101713.97;5176924;28;20053;-68
2022/12/07 01:00:46;;;;;;;9.80;6.97;;;;;;;4.61;100.00;101722.38;5194653;28;20460;-68
2022/12/07 01:03:18;;;;;;;9.50;6.45;;;;;;;4.57;100.00;101714.81;5194650;28;20040;-68
2022/12/07 01:05:54;;;;;;;7.32;6.13;;;;;;;4.67;100.00;101720.44;5194613;28;20022;-68
2022/12/07 01:08:26;;;;;;;10.25;6.75;;;;;;;4.57;100.00;101720.00;5194686;28;20477;-68
2022/12/07 01:11:00;;;;;;;9.20;6.13;;;;;;;4.59;100.00;101719.03;5194101;28;20030;-68
2022/12/07 01:13:33;;;;;;;8.30;6.57;;;;;;;4.47;100.00;101722.19;5194043;28;20104;-68
2022/12/07 01:16:07;;;;;;;7.95;5.88;;;;;;;4.37;100.00;101711.38;5193778;28;20378;-68
2022/12/07 01:18:38;;;;;;;7.30;6.18;;;;;;;4.43;100.00;101720.59;5193295;28;20111;-68
2022/12/07 01:21:29;;;;;;;8.85;5.60;;;;;;;4.60;100.00;101712.91;5194306;28;20490;-68
2022/12/07 01:24:02;;;;;;;8.05;6.20;;;;;;;4.45;100.00;101713.63;5194460;28;20073;-68
2022/12/07 01:26:33;;;;;;;9.35;5.90;;;;;;;4.48;100.00;101717.84;5194044;28;20036;-68
2022/12/07 01:29:05;;;;;;;7.20;6.45;;;;;;;4.45;100.00;101708.44;5192553;28;20018;-68
2022/12/07 01:31:36;;;;;;;8.15;6.00;;;;;;;4.51;100.00;101715.94;5193169;28;20491;-68
2022/12/07 01:34:08;;;;;;;8.50;6.45;;;;;;;4.56;100.00;101713.13;5194257;28;20081;-68
2022/12/07 01:36:39;;;;;;;8.15;6.35;;;;;;;4.63;100.00;101720.56;5192024;28;20040;-68
2022/12/07 01:39:11;;;;;;;8.52;6.25;;;;;;;4.55;100.00;101701.06;5193961;28;20391;-68
2022/12/07 01:41:43;;;;;;;6.85;5.97;;;;;;;4.68;100.00;101724.69;5193519;28;20026;-68
2022/12/07 01:44:32;;;;;;;12.75;6.95;;;;;;;4.84;100.00;101733.44;5193323;28;20033;-68
2022/12/07 01:47:04;;;;;;;11.27;6.72;;;;;;;4.76;100.00;101725.19;5193863;28;20022;-68
2022/12/07 01:49:48;;;;;;;7.45;6.43;;;;;;;4.89;100.00;101718.53;5193106;28;20121;-68
2022/12/07 01:52:29;;;;;;;9.85;6.38;;;;;;;4.82;100.00;101724.91;5193913;28;20062;-68
2022/12/07 01:55:08;;;;;;;11.60;5.80;;;;;;;4.88;100.00;101719.41;5193647;28;20056;-68
2022/12/07 01:57:43;;;;;;;6.88;5.90;;;;;;;4.80;100.00;101714.59;5192769;28;20030;-68
2022/12/07 02:00:15;;;;;;;10.10;6.75;;;;;;;4.78;100.00;101708.63;5192679;28;20037;-68
2022/12/07 02:02:53;;;;;;;9.68;5.72;;;;;;;4.83;100.00;101708.41;5194223;28;20685;-68
2022/12/07 02:05:25;;;;;;;8.88;6.47;;;;;;;4.79;100.00;101709.47;5192744;28;20036;-68
2022/12/07 02:07:58;;;;;;;8.27;5.85;;;;;;;4.81;100.00;101712.81;5193423;28;20032;-68
2022/12/07 02:10:31;;;;;;;8.18;5.90;;;;;;;4.75;100.00;101711.38;5193200;28;20484;-68
2022/12/07 02:13:14;;;;;;;8.63;5.78;;;;;;;4.89;100.00;101702.94;5192509;28;20109;-68
2022/12/07 02:16:17;;;;;;;7.57;6.45;;;;;;;4.94;100.00;101700.97;5193643;28;20488;-68
2022/12/07 02:19:13;;;;;;;9.63;6.13;;;;;;;4.86;100.00;101710.88;5193553;28;20034;-68
2022/12/07 02:21:53;;;;;;;7.90;5.88;;;;;;;4.73;100.00;101714.94;5192119;28;20031;-68
2022/12/07 02:25:00;;;;;;;9.43;5.80;;;;;;;4.74;100.00;101709.69;5193447;28;20054;-68
2022/12/07 02:27:46;;;;;;;6.07;5.43;;;;;;;4.81;100.00;101710.22;5148595;28;20133;-68
2022/12/07 02:30:20;;;;;;;10.73;6.10;;;;;;;4.67;100.00;101707.47;5192374;28;20030;-68
2022/12/07 02:33:13;;;;;;;9.13;5.82;;;;;;;4.82;100.00;101707.56;5193383;28;20110;-68
2022/12/07 02:35:51;;;;;;;15.63;6.80;;;;;;;4.75;100.00;101706.19;5193066;28;20503;-68
2022/12/07 02:38:36;;;;;;;8.10;5.55;;;;;;;4.75;100.00;101693.19;5194021;28;20045;-68
2022/12/07 02:41:16;;;;;;;9.43;5.53;;;;;;;4.63;100.00;101699.81;5197172;28;20022;-68
2022/12/07 02:44:06;;;;;;;6.90;5.13;;;;;;;4.61;100.00;101703.38;5197923;28;20644;-68
2022/12/07 02:46:41;;;;;;;7.72;5.32;;;;;;;4.57;100.00;101704.44;5196276;28;20104;-68
2022/12/07 02:49:13;;;;;;;10.25;5.80;;;;;;;4.46;100.00;101707.50;5193028;28;20034;-68
2022/12/07 02:51:46;;;;;;;7.05;5.32;;;;;;;4.52;100.00;101707.25;5193915;28;20052;-68
2022/12/07 02:54:19;;;;;;;9.00;5.68;;;;;;;4.60;100.00;101699.94;5193519;28;20387;-68
2022/12/07 02:56:54;;;;;;;6.47;5.28;;;;;;;4.64;100.00;101709.25;5194225;28;20116;-68
2022/12/07 02:59:40;;;;;;;9.30;5.35;;;;;;;4.67;100.00;101704.84;5196303;28;20439;-68
2022/12/07 03:02:36;;;;;;;7.60;5.50;;;;;;;4.62;100.00;101708.50;5190264;28;20034;-68
2022/12/07 03:05:08;;;;;;;7.38;5.60;;;;;;;4.51;100.00;101707.28;5194531;28;20062;-68
2022/12/07 03:07:49;;;;;;;7.57;5.00;;;;;;;4.55;100.00;101707.09;5193955;28;20059;-68
2022/12/07 03:10:35;;;;;;;6.63;4.95;;;;;;;4.57;100.00;101710.44;5192354;28;20351;-68
2022/12/07 03:13:16;;;;;;;8.10;4.93;;;;;;;4.44;100.00;101711.94;5192226;28;20076;-68
2022/12/07 03:16:01;;;;;;;6.25;5.15;;;;;;;4.53;100.00;101708.91;5195268;28;20427;-68
2022/12/07 03:18:40;;;;;;;7.55;4.75;;;;;;;4.51;100.00;101708.16;5194086;28;20572;-68
2022/12/07 03:21:16;;;;;;;7.78;4.80;;;;;;;4.38;100.00;101704.41;5192394;28;20038;-68
2022/12/07 03:23:53;;;;;;;5.85;4.90;;;;;;;4.43;100.00;101707.63;5195261;28;20053;-68
2022/12/07 03:26:33;;;;;;;8.85;4.90;;;;;;;4.45;100.00;101702.41;5193948;28;20030;-68
2022/12/07 03:29:11;;;;;;;9.10;4.53;;;;;;;4.38;100.00;101694.03;5193278;28;20027;-68
2022/12/07 03:31:47;;;;;;;8.20;5.15;;;;;;;4.36;100.00;101690.69;5147332;28;20030;-68
2022/12/07 03:34:31;;;;;;;5.97;4.70;;;;;;;4.44;100.00;101692.94;5193778;28;20038;-68
2022/12/07 03:37:15;;;;;;;6.07;4.60;;;;;;;4.47;100.00;101700.56;5192339;28;20064;-68
2022/12/07 03:40:01;;;;;;;6.28;4.25;;;;;;;4.37;100.00;101690.63;5193895;28;20472;-68
2022/12/07 03:42:33;;;;;;;6.88;4.93;;;;;;;4.34;100.00;101700.28;5194440;28;20046;-68
2022/12/07 03:45:06;;;;;;;9.70;5.17;;;;;;;4.43;100.00;101701.63;5192887;28;20427;-68
2022/12/07 03:47:47;;;;;;;5.93;4.82;;;;;;;4.61;100.00;101701.63;5194950;28;20096;-68
2022/12/07 03:50:44;;;;;;;8.88;5.10;;;;;;;4.72;100.00;101690.75;5194168;28;20464;-68
2022/12/07 03:53:25;;;;;;;8.00;4.78;;;;;;;4.61;100.00;101706.81;5194664;28;20026;-68
2022/12/07 03:55:57;;;;;;;10.88;4.75;;;;;;;4.46;100.00;101699.72;5192768;28;20030;-68
2022/12/07 03:58:29;;;;;;;8.57;5.18;;;;;;;4.45;100.00;101702.41;5190036;28;20037;-68
2022/12/07 04:01:01;;;;;;;8.70;4.60;;;;;;;4.49;100.00;101711.72;5193690;28;20018;-68
2022/12/07 04:03:32;;;;;;;7.05;4.85;;;;;;;4.49;100.00;101707.38;5194545;28;20510;-68
2022/12/07 04:06:04;;;;;;;10.05;5.07;;;;;;;4.53;100.00;101692.50;5192637;28;20484;-68
2022/12/07 04:08:36;;;;;;;6.32;5.07;;;;;;;4.56;100.00;101697.56;5187843;28;20031;-68
2022/12/07 04:11:07;;;;;;;8.38;4.68;;;;;;;4.54;100.00;101699.38;5192678;28;20045;-69
2022/12/07 04:16:28;;;;;;;7.47;5.00;;;;;;;4.59;100.00;101689.63;5193445;28;20031;-68
2022/12/07 04:19:00;;;;;;;8.63;5.00;;;;;;;4.59;100.00;101698.25;5194541;28;20023;-68
2022/12/07 04:21:31;;;;;;;8.77;5.43;;;;;;;4.60;100.00;101697.34;5192781;28;20030;-68
2022/12/07 04:24:03;;;;;;;7.63;4.90;;;;;;;4.63;100.00;101694.63;5193256;28;20083;-68
2022/12/07 04:26:35;;;;;;;8.00;5.47;;;;;;;4.62;100.00;101698.13;5193605;28;20424;-68
2022/12/07 04:29:07;;;;;;;14.27;5.90;;;;;;;4.66;100.00;101693.63;5192150;28;20023;-68
2022/12/07 04:31:38;;;;;;;11.68;5.97;;;;;;;4.66;100.00;101691.03;5193906;28;20100;-68
2022/12/07 04:34:11;;;;;;;6.63;5.38;;;;;;;4.69;100.00;101687.44;5192890;28;20022;-68
2022/12/07 04:36:43;;;;;;;10.20;5.33;;;;;;;4.68;100.00;101681.41;5192489;28;20121;-68
2022/12/07 04:39:23;;;;;;;9.27;5.83;;;;;;;4.87;100.00;101681.38;5189147;28;20121;-69
2022/12/07 04:41:56;;;;;;;8.45;5.32;;;;;;;4.77;100.00;101682.72;5191224;28;20070;-68
2022/12/07 04:44:28;;;;;;;7.40;5.73;;;;;;;4.78;100.00;101680.09;5192016;28;20444;-68
2022/12/07 04:47:00;;;;;;;8.50;5.25;;;;;;;4.82;100.00;101671.22;5191328;28;20025;-68
2022/12/07 04:49:31;;;;;;;8.30;5.18;;;;;;;4.80;100.00;101680.00;5192274;28;20046;-68
2022/12/07 04:52:03;;;;;;;10.65;5.07;;;;;;;4.84;100.00;101686.72;5191663;28;20030;-68
2022/12/07 04:54:34;;;;;;;10.75;5.03;;;;;;;4.81;100.00;101685.13;5191237;28;20045;-68
2022/12/07 04:57:05;;;;;;;8.35;5.25;;;;;;;4.83;100.00;101685.03;5190833;28;20502;-68
2022/12/07 04:59:36;;;;;;;8.65;5.28;;;;;;;4.84;100.00;101674.56;5227679;23;20393;-72
2022/12/07 05:02:08;;;;;;;8.98;5.03;;;;;;;4.88;100.00;101675.28;5249780;28;20036;-72
2022/12/07 05:04:39;;;;;;;12.55;5.70;;;;;;;4.88;100.00;101667.50;5224340;28;20577;-72
2022/12/07 05:07:10;;;;;;;8.93;5.20;;;;;;;4.73;100.00;101640.50;5252962;28;20400;-72
2022/12/07 05:09:41;;;;;;;9.48;5.15;;;;;;;4.88;100.00;101668.31;5254700;28;20466;-70
2022/12/07 05:12:13;;;;;;;10.82;5.00;;;;;;;4.88;100.00;101662.28;5250510;28;20025;-72
2022/12/07 05:14:44;;;;;;;11.13;4.82;;;;;;;4.90;100.00;101670.88;5252082;28;20044;-72
2022/12/07 05:17:16;;;;;;;9.73;5.32;;;;;;;4.94;100.00;101672.41;5249916;28;20047;-72
2022/12/07 05:19:47;;;;;;;10.98;5.30;;;;;;;4.88;100.00;101667.50;5252787;28;20044;-72
2022/12/07 05:22:19;;;;;;;8.32;5.47;;;;;;;4.92;100.00;101671.63;5252178;28;20064;-71
2022/12/07 05:24:50;;;;;;;11.40;5.32;;;;;;;4.95;100.00;101662.84;5252271;28;20513;-72
2022/12/07 05:27:21;;;;;;;9.63;4.75;;;;;;;4.90;100.00;101663.06;5251719;28;20031;-72
2022/12/07 05:29:53;;;;;;;9.15;4.53;;;;;;;4.86;100.00;101654.59;5250866;28;20037;-72
2022/12/07 05:32:24;;;;;;;10.45;4.40;;;;;;;4.88;100.00;101662.28;5251720;28;20090;-71
2022/12/07 05:34:55;;;;;;;9.57;4.60;;;;;;;4.88;100.00;101667.50;5249825;28;20116;-72
2022/12/07 05:37:27;;;;;;;8.57;4.00;;;;;;;4.86;100.00;101670.16;5248494;28;20032;-72
2022/12/07 05:39:58;;;;;;;14.20;3.80;;;;;;;4.81;100.00;101666.09;5252866;28;20505;-72
2022/12/07 05:42:29;;;;;;;5.90;3.80;;;;;;;4.76;100.00;101663.72;5249688;28;20030;-72
2022/12/07 05:45:00;;;;;;;9.55;3.63;;;;;;;4.72;100.00;101653.56;5234031;28;20025;-72
2022/12/07 05:47:32;;;;;;;6.82;3.58;;;;;;;4.67;100.00;101653.78;5249361;28;20021;-71
2022/12/07 05:50:04;;;;;;;6.60;3.65;;;;;;;4.64;100.00;101659.94;5250837;28;20072;-71
2022/12/07 05:52:36;;;;;;;8.30;3.80;;;;;;;4.58;100.00;101662.84;5250806;28;20059;-72
2022/12/07 05:55:07;;;;;;;9.98;3.75;;;;;;;4.54;100.00;101658.69;5250415;28;20029;-72
2022/12/07 05:57:38;;;;;;;7.97;3.40;;;;;;;4.50;100.00;101656.31;5251727;28;20029;-72
2022/12/07 06:00:10;;;;;;;6.13;3.22;;;;;;;4.41;100.00;101648.97;5252172;28;20044;-71
2022/12/07 06:02:42;;;;;;;7.68;3.45;;;;;;;4.38;100.00;101649.94;5250029;28;21001;-72
2022/12/07 06:05:13;;;;;;;4.75;3.50;;;;;;;4.31;100.00;101666.69;5232275;28;20115;-72
2022/12/07 06:07:44;;;;;;;7.28;3.75;;;;;;;4.27;100.00;101659.97;5247500;28;20036;-72
2022/12/07 06:10:16;;;;;;;8.80;3.80;;;;;;;4.20;100.00;101661.97;5250623;28;20027;-72
2022/12/07 06:12:47;;;;;;;8.00;3.63;;;;;;;4.23;100.00;101671.38;5249381;28;20079;-70
2022/12/07 06:15:18;;;;;;;5.63;3.60;;;;;;;4.24;100.00;101662.69;5251224;28;20561;-72
2022/12/07 06:17:49;;;;;;;9.15;4.05;;;;;;;4.20;100.00;101655.97;5221933;28;20531;-72
2022/12/07 06:20:21;;;;;;;7.38;4.50;;;;;;;4.18;100.00;101663.00;5251783;28;20396;-72
2022/12/07 06:22:52;;;;;;;6.97;3.78;;;;;;;4.17;100.00;101669.94;5250156;28;20023;-72
2022/12/07 06:25:23;;;;;;;7.43;4.18;;;;;;;4.17;100.00;101666.47;5228710;28;20171;-71
2022/12/07 06:27:55;;;;;;;8.25;4.13;;;;;;;4.18;100.00;101661.22;5250290;28;20367;-71
2022/12/07 06:30:26;;;;;;;8.43;3.83;;;;;;;4.14;100.00;101670.91;5251985;28;20059;-72
2022/12/07 06:32:57;;;;;;;7.88;4.25;;;;;;;4.14;100.00;101670.91;5232536;28;20039;-71
2022/12/07 06:35:28;;;;;;;7.63;3.72;;;;;;;4.15;100.00;101664.78;5251384;28;20501;-72
2022/12/07 06:38:00;;;;;;;10.18;4.40;;;;;;;4.17;100.00;101669.94;5248895;28;20055;-70
2022/12/07 06:40:31;;;;;;;6.82;4.65;;;;;;;4.17;100.00;101675.13;5252953;28;20028;-72
2022/12/07 06:43:02;;;;;;;8.85;4.10;;;;;;;4.20;100.00;101668.94;5252778;28;20021;-72
2022/12/07 06:45:33;;;;;;;7.85;3.92;;;;;;;4.20;100.00;101672.34;5251051;28;20029;-72
2022/12/07 06:48:05;;;;;;;10.40;4.35;;;;;;;4.19;100.00;101677.63;5232215;28;20026;-72
2022/12/07 06:50:36;;;;;;;9.35;4.10;;;;;;;4.21;100.00;101668.03;5250035;28;20396;-71
2022/12/07 06:53:07;;;;;;;9.77;4.47;;;;;;;4.15;100.00;101657.00;5234639;28;20734;-72
2022/12/07 06:55:39;;;;;;;11.73;5.18;;;;;;;4.22;100.00;101672.31;5248452;28;20078;-71
2022/12/07 06:58:10;;;;;;;6.93;4.10;;;;;;;4.22;100.00;101669.72;5248411;28;20043;-72
2022/12/07 07:00:41;;;;;;;11.02;4.93;;;;;;;4.20;100.00;101676.72;5243294;28;20555;-72
2022/12/07 07:03:13;;;;;;;8.88;4.00;;;;;;;4.19;100.00;101667.25;5249445;28;20486;-71
2022/12/07 07:05:44;;;;;;;9.13;4.40;;;;;;;4.18;100.00;101670.75;5246753;28;20044;-72
2022/12/07 07:08:15;;;;;;;6.85;3.83;;;;;;;4.14;100.00;101665.72;5253054;28;20025;-71
2022/12/07 07:10:47;;;;;;;7.03;3.80;;;;;;;4.07;100.00;101655.69;5244982;28;20375;-72
2022/12/07 07:13:18;;;;;;;6.43;4.07;;;;;;;4.12;100.00;101666.69;5246961;28;20024;-71
2022/12/07 07:15:50;;;;;;;7.30;3.78;;;;;;;4.12;100.00;101674.47;5250846;28;20036;-72
2022/12/07 07:18:21;;;;;;;7.53;4.10;;;;;;;4.11;100.00;101676.22;5251303;28;20029;-72
2022/12/07 07:20:53;;;;;;;8.30;4.68;;;;;;;4.10;100.00;101677.13;5247517;28;20060;-72
2022/12/07 07:23:25;;;;;;;10.10;4.60;;;;;;;4.10;100.00;101674.53;5251459;28;20041;-72
2022/12/07 07:25:56;;;;;;;10.07;4.43;;;;;;;4.13;100.00;101673.56;5254605;28;20025;-72
2022/12/07 07:28:28;;;;;;;5.25;3.90;;;;;;;4.06;100.00;101667.81;5254282;28;20474;-70
2022/12/07 07:30:59;;;;;;;9.68;4.15;;;;;;;4.11;100.00;101676.22;5255500;28;20466;-72
2022/12/07 07:33:30;;;;;;;10.32;3.92;;;;;;;4.12;100.00;101683.06;5252414;28;20454;-72
2022/12/07 07:36:01;;;;;;;6.85;4.22;;;;;;;4.14;100.00;101683.88;5254081;28;20102;-72
2022/12/07 07:38:33;;;;;;;6.93;4.00;;;;;;;4.08;100.00;101668.56;5252229;28;20151;-72
2022/12/07 07:41:04;;;;;;;9.70;4.10;;;;;;;4.13;100.00;101679.59;5257344;28;20440;-71
2022/12/07 07:43:38;;;;;;;6.38;3.55;;;;;;;4.19;100.00;101681.06;5254533;28;20060;-72
2022/12/07 07:46:10;;;;;;;9.15;4.25;;;;;;;4.12;100.00;101688.25;5254253;28;20055;-72
2022/12/07 07:48:41;;;;;;;11.57;4.53;;;;;;;4.09;100.00;101683.25;5236056;28;20029;-72
2022/12/07 07:51:12;;;;;;;6.93;3.75;;;;;;;4.09;100.00;101683.25;5247879;28;20030;-70
2022/12/07 07:53:44;;;;;;;7.72;4.22;;;;;;;3.96;100.00;101660.50;5250132;28;20035;-69
2022/12/07 07:56:15;;;;;;;9.52;3.95;;;;;;;4.10;100.00;101684.91;5253090;28;20035;-71
2022/12/07 07:58:46;;;;;;;11.43;4.68;;;;;;;4.11;100.00;101680.56;5249290;28;20470;-72
2022/12/07 08:01:19;;;;;;;8.65;4.30;;;;;;;4.09;100.00;101685.84;5253996;28;20478;-72
2022/12/07 08:03:50;;;;;;;9.15;4.82;;;;;;;4.07;100.00;101679.00;5248554;28;20072;-72
2022/12/07 08:06:21;;;;;;;5.90;3.90;;;;;;;4.05;100.00;101678.22;5251680;28;20068;-72
2022/12/07 08:08:53;;;;;;;10.10;4.82;;;;;;;4.02;100.00;101686.16;5243630;28;20040;-72
2022/12/07 08:11:24;;;;;;;8.90;4.63;;;;;;;4.01;100.00;101689.66;5249719;28;20133;-72
2022/12/07 08:13:55;;;;;;;7.03;4.45;;;;;;;3.99;100.00;101689.72;5231918;28;20028;-71
2022/12/07 08:16:27;;;;;;;9.75;4.72;;;;;;;4.00;100.00;101691.41;5234073;28;20094;-72
2022/12/07 08:18:58;;;;;;;9.90;4.30;;;;;;;4.00;100.00;101693.16;5250293;28;20038;-72
2022/12/07 08:21:29;;;;;;;7.03;3.85;;;;;;;4.02;100.00;101699.13;5251989;28;20029;-72
2022/12/07 08:24:00;;;;;;;11.82;4.72;;;;;;;4.04;100.00;101703.31;5250345;28;20478;-71
2022/12/07 08:26:32;;;;;;;8.90;4.32;;;;;;;4.05;100.00;101705.03;5252346;28;20028;-71
2022/12/07 08:29:03;;;;;;;8.45;4.50;;;;;;;4.08;100.00;101694.50;5252718;28;20017;-72
2022/12/07 08:31:35;;;;;;;8.00;4.85;;;;;;;4.12;100.00;101702.97;5251922;28;20063;-69
2022/12/07 08:34:06;;;;;;;9.05;4.65;;;;;;;4.13;100.00;101702.94;5250849;28;20398;-71
2022/12/07 08:36:37;;;;;;;10.38;4.63;;;;;;;4.20;100.00;101706.06;5251294;28;20389;-72
2022/12/07 08:39:09;;;;;;;8.05;4.35;;;;;;;4.24;100.00;101710.22;5247323;28;20029;-72
2022/12/07 08:41:40;;;;;;;8.75;4.43;;;;;;;4.28;100.00;101711.78;5251724;28;20036;-73
2022/12/07 08:44:11;;;;;;;9.00;4.47;;;;;;;4.24;100.00;101702.44;5249176;28;20556;-71
2022/12/07 08:46:52;;;;;;;9.23;5.13;;;;;;;4.48;100.00;101720.44;5251397;28;20481;-70
2022/12/07 08:49:28;;;;;;;11.95;5.32;;;;;;;4.48;100.00;101712.66;5250327;28;20104;-72
2022/12/07 08:51:59;;;;;;;8.93;4.80;;;;;;;4.52;100.00;101712.44;5250923;28;20056;-72
2022/12/07 08:54:36;;;;;;;10.07;5.28;;;;;;;4.64;100.00;101719.66;5252617;28;21106;-71
2022/12/07 08:57:09;;;;;;;9.95;5.55;;;;;;;4.65;100.00;101710.09;5248070;28;20476;-71
2022/12/07 08:59:40;;;;;;;10.27;6.07;;;;;;;4.64;100.00;101701.47;5249194;28;20040;-71
2022/12/07 09:02:11;;;;;;;9.07;5.40;;;;;;;4.78;100.00;101708.63;5252209;28;20362;-72
2022/12/07 09:04:42;;;;;;;10.82;4.93;;;;;;;4.83;100.00;101703.22;5249193;28;20231;-71
2022/12/07 09:07:14;;;;;;;9.85;4.97;;;;;;;4.84;100.00;101699.69;5250641;28;20064;-71
2022/12/07 09:09:45;;;;;;;8.98;4.65;;;;;;;4.88;100.00;101701.25;5248467;28;20030;-71
2022/12/07 09:12:16;;;;;;;7.80;4.38;;;;;;;4.96;100.00;101699.13;5246529;28;20474;-71
2022/12/07 09:14:47;;;;;;;11.80;5.38;;;;;;;5.00;100.00;101692.88;5246885;28;20022;-71
2022/12/07 09:17:19;;;;;;;10.00;5.32;;;;;;;5.04;100.00;101694.44;5248227;28;20053;-71
2022/12/07 09:19:50;;;;;;;9.25;4.30;;;;;;;5.06;100.00;101691.75;5244321;28;20026;-71
2022/12/07 09:22:21;;;;;;;11.68;4.88;;;;;;;5.07;100.00;101696.84;5246484;28;20032;-71
2022/12/07 09:24:53;;;;;;;9.95;4.60;;;;;;;5.11;100.00;101694.94;5246477;28;20230;-71
2022/12/07 09:27:24;;;;;;;15.15;5.30;;;;;;;5.07;100.00;101696.84;5247494;28;20041;-71
2022/12/07 09:29:56;;;;;;;9.82;4.20;;;;;;;5.04;100.00;101685.78;5244224;28;20052;-71
2022/12/07 09:32:27;;;;;;;9.73;4.80;;;;;;;5.06;100.00;101691.75;5244782;28;20568;-71
2022/12/07 09:34:58;;;;;;;11.98;5.03;;;;;;;5.03;100.00;101697.06;5242277;28;20044;-70
2022/12/07 09:37:31;;;;;;;12.55;4.60;;;;;;;4.98;100.00;101694.69;5243434;28;20473;-71
2022/12/07 09:40:04;;;;;;;9.85;4.38;;;;;;;4.97;100.00;101693.03;5239568;28;20386;-71
2022/12/07 09:42:41;;;;;;;13.60;4.78;;;;;;;5.02;100.00;101703.19;5244357;28;20087;-71
2022/12/07 09:45:18;;;;;;;7.28;4.68;;;;;;;5.07;100.00;101703.81;5242942;28;20529;-72
2022/12/07 09:47:50;;;;;;;10.10;4.30;;;;;;;4.93;100.00;101682.88;5248825;28;20466;-71
2022/12/07 09:50:25;;;;;;;8.18;3.67;;;;;;;5.11;100.00;101697.53;5249374;28;20025;-71
2022/12/07 09:53:12;;;;;;;9.88;4.13;;;;;;;5.25;100.00;101691.69;5247596;28;20585;-72
2022/12/07 09:55:44;;;;;;;12.07;4.28;;;;;;;5.12;100.00;101686.25;5249221;28;20051;-71
2022/12/07 09:58:27;;;;;;;8.32;4.35;;;;;;;5.42;100.00;101689.13;5250339;28;20351;-72
2022/12/07 10:01:13;;;;;;;9.63;4.57;;;;;;;5.54;100.00;101691.09;5247622;28;20498;-73
2022/12/07 10:04:08;;;;;;;9.18;4.75;;;;;;;5.66;100.00;101696.59;5248457;28;20037;-72
2022/12/07 10:06:41;;;;;;;8.52;4.30;;;;;;;5.43;100.00;101688.19;5230461;28;20025;-72
2022/12/07 10:09:14;;;;;;;7.95;3.60;;;;;;;5.53;100.00;101696.34;5246577;28;20226;-72
2022/12/07 10:12:08;;;;;;;8.57;4.18;;;;;;;5.76;100.00;101690.84;5243278;28;20029;-72
2022/12/07 10:14:52;;;;;;;;;;;;;;;6.08;100.00;101667.56;5246347;28;20036;-72
2022/12/07 10:17:50;;;;;;;7.53;3.80;;;;;;;5.98;100.00;101677.59;5246594;28;19920;-72
2022/12/07 10:20:23;;;;;;;8.20;3.88;;;;;;;5.77;100.00;101671.72;5240227;28;20054;-73
2022/12/07 10:22:55;;;;;;;5.35;3.30;;;;;;;5.91;100.00;101676.22;5246930;28;20036;-72
2022/12/07 10:25:35;;;;;;;8.80;4.05;;;;;;;6.06;100.00;101678.06;5249795;28;20410;-72
2022/12/07 10:28:06;;;;;;;9.07;3.97;;;;;;;5.94;100.00;101665.66;5246110;28;20674;-72
2022/12/07 10:30:59;;;;;;;7.20;4.83;;;;;;;6.19;100.00;101664.41;5246435;28;20033;-72
2022/12/07 10:33:37;;;;;;;7.18;4.10;;;;;;;6.00;100.00;101662.75;5248051;28;20283;-72
2022/12/07 10:36:21;;;;;;;6.53;3.83;;;;;;;6.06;100.00;101659.84;5243149;28;20516;-71
2022/12/07 10:39:01;;;;;;;6.63;3.83;;;;;;;5.90;100.00;101645.91;5242752;28;20120;-73
2022/12/07 10:41:32;;;;;;;10.80;4.00;;;;;;;5.89;100.00;101657.25;5245278;28;20024;-72
2022/12/07 10:44:03;;;;;;;6.60;4.10;;;;;;;5.93;100.00;101652.75;5246584;28;20489;-72
2022/12/07 10:47:00;;;;;;;11.48;3.67;;;;;;;6.20;100.00;101650.47;5243680;28;20505;-71
2022/12/07 10:49:46;;;;;;;9.45;4.65;;;;;;;6.24;100.00;101650.19;5247446;28;20025;-72
2022/12/07 10:52:48;;;;;;;8.40;4.47;;;;;;;6.48;100.00;101645.44;5247890;28;20172;-72
2022/12/07 10:55:32;;;;;;;8.20;4.22;;;;;;;6.51;100.00;101645.25;5240446;28;20032;-72
2022/12/07 10:58:24;;;;;;;7.80;3.60;;;;;;;6.58;100.00;101641.41;5248682;28;20025;-72
2022/12/07 11:00:58;;;;;;;9.10;3.88;;;;;;;6.58;100.00;101644.00;5262110;23;20057;-68
2022/12/07 11:03:45;;;;;;;7.00;3.72;;;;;;;6.69;100.00;101626.94;5252889;28;20028;-68
2022/12/07 11:06:29;;;;;;;7.60;3.45;;;;;;;6.73;100.00;101626.69;5254489;28;20388;-68
2022/12/07 11:09:38;;;;;;;11.35;3.95;;;;;;;6.90;100.00;101633.56;5255911;28;20021;-68
2022/12/07 11:12:22;;;;;;;7.55;3.65;;;;;;;6.77;100.00;101622.97;5227326;28;20072;-68
2022/12/07 11:15:08;;;;;;;6.80;3.35;;;;;;;6.89;100.00;101625.81;5234421;28;20036;-68
2022/12/07 11:17:56;;;;;;;8.60;3.42;;;;;;;6.91;100.00;101616.16;5234807;28;20108;-68
2022/12/07 11:20:44;;;;;;;8.07;3.03;;;;;;;6.99;100.00;101613.97;5234055;28;20025;-68
2022/12/07 11:23:44;;;;;;;7.40;2.78;;;;;;;7.11;100.00;101612.41;5233897;28;20100;-68
2022/12/07 11:26:37;;;;;;;9.43;3.63;;;;;;;7.03;100.00;101605.88;5232355;28;20029;-68
2022/12/07 11:29:33;;;;;;;9.30;3.17;;;;;;;7.20;100.00;101607.50;5233475;28;20025;-69
2022/12/07 11:32:14;;;;;;;8.38;3.05;;;;;;;7.13;100.00;101608.78;5231500;28;20068;-68
2022/12/07 11:35:03;;;;;;;8.48;3.05;;;;;;;7.08;100.00;101603.00;5233296;28;20630;-68
2022/12/07 11:37:37;;;;;;;5.95;3.40;;;;;;;7.20;100.00;101598.88;5235674;28;20041;-68
2022/12/07 11:40:18;;;;;;;10.15;3.17;;;;;;;7.34;100.00;101601.47;5233737;28;20035;-68
2022/12/07 11:43:13;;;;;;;8.05;3.13;;;;;;;7.39;100.00;101599.44;5236345;28;21063;-68
2022/12/07 11:45:52;;;;;;;6.35;2.92;;;;;;;7.30;100.00;101603.41;5218918;28;20083;-68
2022/12/07 11:48:40;;;;;;;10.13;3.85;;;;;;;7.41;100.00;101608.00;5237581;28;20024;-68
2022/12/07 11:51:12;;;;;;;7.60;2.35;;;;;;;7.19;100.00;101595.38;5235480;28;20029;-68
2022/12/07 11:53:55;;;;;;;6.77;2.50;;;;;;;7.25;100.00;101604.63;5236226;28;20028;-68
2022/12/07 11:56:28;;;;;;;7.07;2.90;;;;;;;7.24;100.00;101595.16;5236990;28;20091;-68
2022/12/07 11:59:00;;;;;;;6.40;2.47;;;;;;;7.25;100.00;101596.81;5235959;28;20180;-68
2022/12/07 12:01:42;;;;;;;6.53;2.40;;;;;;;7.37;100.00;101588.25;5235665;28;20652;-68
2022/12/07 12:04:25;;;;;;;9.77;2.85;;;;;;;7.12;100.00;101582.81;5203766;28;20064;-68